createdAt,value
2022-09-10T00:02:02.038Z,24.90
2022-09-10T00:04:28.802Z,21.90
2022-09-10T00:06:56.363Z,23.70
2022-09-10T00:09:23.404Z,24.02
2022-09-10T00:11:50.076Z,22.20
2022-09-10T00:14:21.112Z,21.50
2022-09-10T00:16:48.485Z,22.63
2022-09-10T00:19:15.659Z,22.80
2022-09-10T00:21:44.396Z,23.92
2022-09-10T00:24:11.180Z,22.35
2022-09-10T00:26:39.598Z,23.65
2022-09-10T00:29:09.108Z,23.50
2022-09-10T00:31:36.108Z,23.83
2022-09-10T00:34:03.711Z,24.17
2022-09-10T00:36:37.337Z,23.27
2022-09-10T00:39:09.595Z,24.42
2022-09-10T00:41:39.237Z,22.98
2022-09-10T00:44:28.097Z,25.83
2022-09-10T00:46:56.325Z,25.90
2022-09-10T00:49:36.411Z,25.67
2022-09-10T00:52:03.834Z,25.75
2022-09-10T00:54:33.739Z,26.92
2022-09-10T00:57:05.728Z,26.10
2022-09-10T00:59:33.199Z,26.17
2022-09-10T01:02:00.238Z,25.52
2022-09-10T01:04:32.372Z,26.45
2022-09-10T01:07:00.955Z,25.05
2022-09-10T01:09:28.893Z,24.67
2022-09-10T01:12:13.165Z,24.50
2022-09-10T01:15:18.207Z,23.90
2022-09-10T01:18:09.205Z,21.80
2022-09-10T01:21:05.119Z,22.58
2022-09-10T01:23:50.343Z,23.38
2022-09-10T01:26:43.259Z,23.90
2022-09-10T01:29:16.032Z,25.00
2022-09-10T01:31:53.644Z,25.05
2022-09-10T01:34:32.854Z,25.33
2022-09-10T01:37:07.953Z,25.98
2022-09-10T01:39:35.165Z,26.45
2022-09-10T01:42:01.981Z,26.45
2022-09-10T01:44:47.312Z,24.40
2022-09-10T01:47:44.903Z,24.17
2022-09-10T01:50:35.497Z,23.63
2022-09-10T01:53:20.862Z,24.92
2022-09-10T01:56:29.511Z,25.20
2022-09-10T01:59:03.757Z,25.70
2022-09-10T02:01:40.554Z,26.30
2022-09-10T02:04:10.164Z,27.05
2022-09-10T02:06:40.913Z,26.50
2022-09-10T02:09:09.091Z,26.13
2022-09-10T02:11:51.918Z,27.45
2022-09-10T02:14:21.741Z,26.73
2022-09-10T02:16:54.243Z,27.35
2022-09-10T02:19:21.263Z,26.15
2022-09-10T02:21:48.170Z,27.27
2022-09-10T02:24:15.292Z,25.90
2022-09-10T02:26:44.031Z,26.75
2022-09-10T02:29:13.755Z,26.38
2022-09-10T02:31:41.188Z,27.02
2022-09-10T02:34:08.319Z,27.00
2022-09-10T02:36:35.813Z,27.77
2022-09-10T02:39:04.366Z,25.50
2022-09-10T02:41:34.837Z,26.08
2022-09-10T02:44:02.412Z,25.20
2022-09-10T02:46:29.602Z,25.27
2022-09-10T02:48:56.679Z,26.52
2022-09-10T02:51:23.825Z,24.20
2022-09-10T02:53:50.670Z,23.20
2022-09-10T02:56:19.524Z,22.98
2022-09-10T02:58:46.351Z,23.67
2022-09-10T03:01:15.754Z,23.45
2022-09-10T03:03:42.962Z,23.02
2022-09-10T03:06:10.147Z,28.60
2022-09-10T03:08:36.969Z,22.30
2022-09-10T03:11:05.006Z,22.80
2022-09-10T03:13:31.721Z,21.77
2022-09-10T03:15:59.009Z,23.33
2022-09-10T03:18:27.357Z,26.35
2022-09-10T03:20:54.267Z,29.60
2022-09-10T03:23:20.974Z,32.22
2022-09-10T03:25:49.825Z,27.08
2022-09-10T03:28:16.712Z,23.42
2022-09-10T03:30:43.483Z,21.60
2022-09-10T03:33:11.779Z,19.98
2022-09-10T03:35:38.753Z,22.25
2022-09-10T03:38:05.838Z,22.50
2022-09-10T03:40:33.099Z,21.23
2022-09-10T03:43:00.965Z,21.10
2022-09-10T03:45:28.640Z,21.15
2022-09-10T03:47:55.374Z,21.27
2022-09-10T03:50:22.348Z,19.13
2022-09-10T03:52:49.181Z,18.95
2022-09-10T03:55:16.222Z,19.63
2022-09-10T03:57:42.874Z,18.95
2022-09-10T04:00:12.729Z,18.85
2022-09-10T04:02:41.581Z,22.42
2022-09-10T04:05:09.058Z,23.48
2022-09-10T04:07:36.776Z,22.23
2022-09-10T04:10:03.955Z,22.83
2022-09-10T04:12:30.649Z,22.35
2022-09-10T04:14:57.492Z,25.50
2022-09-10T04:17:25.390Z,23.35
2022-09-10T04:19:52.039Z,24.10
2022-09-10T04:22:18.772Z,21.52
2022-09-10T04:24:45.562Z,22.13
2022-09-10T04:27:12.248Z,20.80
2022-09-10T04:29:38.936Z,19.38
2022-09-10T04:32:05.707Z,20.08
2022-09-10T04:34:32.366Z,17.98
2022-09-10T04:36:59.001Z,18.65
2022-09-10T04:39:25.655Z,17.40
2022-09-10T04:41:52.306Z,17.52
2022-09-10T04:44:20.071Z,17.00
2022-09-10T04:46:47.869Z,17.58
2022-09-10T04:49:14.511Z,17.23
2022-09-10T04:51:41.233Z,18.08
2022-09-10T04:54:07.908Z,17.92
2022-09-10T04:56:35.063Z,18.73
2022-09-10T04:59:01.742Z,17.30
2022-09-10T05:01:28.947Z,19.23
2022-09-10T05:03:55.598Z,18.35
2022-09-10T05:06:23.280Z,18.45
2022-09-10T05:08:50.769Z,20.35
2022-09-10T05:11:19.639Z,20.65
2022-09-10T05:13:46.717Z,19.00
2022-09-10T05:16:13.601Z,20.58
2022-09-10T05:18:40.406Z,19.55
2022-09-10T05:21:07.114Z,20.33
2022-09-10T05:23:34.016Z,20.02
2022-09-10T05:26:00.650Z,19.98
2022-09-10T05:28:27.467Z,20.30
2022-09-10T05:30:54.132Z,20.63
2022-09-10T05:33:21.403Z,21.63
2022-09-10T05:35:51.729Z,21.05
2022-09-10T05:38:19.125Z,20.65
2022-09-10T05:40:45.797Z,20.10
2022-09-10T05:43:12.710Z,20.38
2022-09-10T05:45:39.390Z,20.85
2022-09-10T05:48:06.296Z,20.83
2022-09-10T05:50:33.103Z,20.77
2022-09-10T05:53:00.803Z,20.55
2022-09-10T05:55:27.501Z,20.98
2022-09-10T05:57:54.171Z,19.50
2022-09-10T06:00:20.818Z,20.38
2022-09-10T06:02:48.262Z,19.10
2022-09-10T06:05:15.256Z,19.70
2022-09-10T06:07:41.950Z,20.02
2022-09-10T06:10:09.091Z,19.45
2022-09-10T06:12:35.994Z,18.13
2022-09-10T06:15:03.729Z,20.05
2022-09-10T06:17:30.493Z,17.55
2022-09-10T06:19:57.115Z,20.75
2022-09-10T06:22:23.830Z,19.73
2022-09-10T06:24:50.886Z,19.13
2022-09-10T06:27:17.515Z,19.15
2022-09-10T06:29:44.202Z,19.98
2022-09-10T06:32:10.920Z,20.67
2022-09-10T06:34:37.667Z,19.67
2022-09-10T06:37:05.252Z,20.90
2022-09-10T06:39:32.345Z,19.77
2022-09-10T06:41:59.521Z,18.15
2022-09-10T06:44:26.307Z,18.23
2022-09-10T06:47:30.783Z,19.42
2022-09-10T06:49:43.299Z,16.85
2022-09-10T06:52:11.595Z,16.33
2022-09-10T06:54:38.212Z,15.50
2022-09-10T06:57:05.113Z,15.60
2022-09-10T06:59:31.755Z,15.60
2022-09-10T07:01:58.459Z,13.93
2022-09-10T07:04:25.117Z,14.68
2022-09-10T07:06:51.995Z,13.75
2022-09-10T07:09:18.656Z,13.38
2022-09-10T07:11:45.298Z,13.48
2022-09-10T07:14:13.017Z,13.52
2022-09-10T07:16:44.534Z,13.43
2022-09-10T07:19:17.458Z,14.63
2022-09-10T07:21:44.810Z,15.40
2022-09-10T07:24:12.453Z,16.92
2022-09-10T07:26:39.231Z,17.38
2022-09-10T07:29:06.608Z,16.80
2022-09-10T07:31:35.241Z,17.30
2022-09-10T07:34:03.195Z,17.45
2022-09-10T07:36:30.187Z,15.57
2022-09-10T07:38:58.920Z,15.98
2022-09-10T07:41:30.049Z,15.40
2022-09-10T07:43:57.169Z,16.20
2022-09-10T07:46:25.671Z,15.68
2022-09-10T07:48:57.932Z,14.60
2022-09-10T07:51:26.640Z,15.38
2022-09-10T07:53:55.166Z,17.05
2022-09-10T07:56:25.242Z,16.25
2022-09-10T07:58:53.915Z,17.52
2022-09-10T08:01:21.251Z,19.52
2022-09-10T08:03:48.355Z,19.42
2022-09-10T08:06:16.058Z,21.40
2022-09-10T08:08:43.343Z,21.50
2022-09-10T08:11:12.872Z,20.90
2022-09-10T08:13:41.544Z,19.67
2022-09-10T08:16:14.204Z,19.38
2022-09-10T08:18:41.080Z,18.23
2022-09-10T08:21:08.762Z,20.08
2022-09-10T08:23:36.713Z,21.05
2022-09-10T08:26:05.281Z,19.58
2022-09-10T08:28:32.202Z,19.30
2022-09-10T08:31:08.186Z,19.45
2022-09-10T08:33:36.537Z,18.70
2022-09-10T08:36:04.780Z,19.00
2022-09-10T08:38:36.954Z,18.83
2022-09-10T08:41:13.369Z,18.50
2022-09-10T08:43:57.912Z,18.23
2022-09-10T08:46:32.124Z,20.90
2022-09-10T08:49:14.463Z,19.80
2022-09-10T08:51:48.155Z,22.38
2022-09-10T08:54:22.995Z,20.08
2022-09-10T08:56:50.735Z,19.02
2022-09-10T08:59:39.648Z,18.23
2022-09-10T09:02:47.371Z,18.85
2022-09-10T09:05:20.242Z,17.50
2022-09-10T09:07:48.352Z,18.10
2022-09-10T09:10:41.192Z,20.77
2022-09-10T09:13:26.436Z,15.48
2022-09-10T09:16:20.813Z,12.63
2022-09-10T09:19:14.793Z,11.80
2022-09-10T09:21:52.491Z,12.45
2022-09-10T09:24:34.815Z,10.82
2022-09-10T09:27:10.134Z,9.98
2022-09-10T09:30:01.754Z,8.20
2022-09-10T09:32:34.033Z,9.15
2022-09-10T09:35:00.734Z,9.70
2022-09-10T09:37:31.184Z,9.77
2022-09-10T09:40:12.807Z,9.27
2022-09-10T09:43:02.496Z,9.07
2022-09-10T09:45:43.388Z,8.50
2022-09-10T09:48:15.909Z,8.45
2022-09-10T09:50:46.512Z,7.20
2022-09-10T09:53:19.872Z,6.20
2022-09-10T09:55:58.465Z,7.70
2022-09-10T09:58:26.288Z,6.97
2022-09-10T10:01:15.467Z,7.28
2022-09-10T10:03:53.400Z,7.57
2022-09-10T10:06:31.029Z,7.45
2022-09-10T10:09:00.809Z,7.47
2022-09-10T10:11:47.524Z,8.32
2022-09-10T10:14:20.267Z,7.40
2022-09-10T10:16:49.093Z,7.95
2022-09-10T10:19:40.012Z,7.72
2022-09-10T10:22:18.676Z,6.82
2022-09-10T10:24:48.079Z,5.63
2022-09-10T10:27:35.564Z,5.43
2022-09-10T10:30:17.278Z,5.70
2022-09-10T10:32:56.178Z,4.80
2022-09-10T10:35:47.878Z,6.25
2022-09-10T10:38:40.533Z,5.18
2022-09-10T10:41:25.710Z,4.15
2022-09-10T10:44:25.023Z,4.88
2022-09-10T10:47:34.084Z,4.53
2022-09-10T10:50:15.965Z,4.55
2022-09-10T10:52:53.311Z,6.97
2022-09-10T10:55:40.088Z,7.28
2022-09-10T10:58:32.988Z,8.60
2022-09-10T11:01:23.894Z,5.72
2022-09-10T11:04:09.603Z,6.35
2022-09-10T11:06:45.173Z,6.20
2022-09-10T11:09:26.058Z,5.00
2022-09-10T11:12:14.400Z,6.40
2022-09-10T11:14:51.571Z,5.88
2022-09-10T11:17:27.220Z,5.00
2022-09-10T11:20:30.214Z,4.63
2022-09-10T11:23:14.289Z,4.50
2022-09-10T11:25:57.965Z,4.68
2022-09-10T11:28:54.312Z,4.80
2022-09-10T11:31:30.629Z,4.82
2022-09-10T11:34:06.891Z,4.75
2022-09-10T11:37:12.573Z,6.28
2022-09-10T11:39:45.355Z,6.88
2022-09-10T11:42:25.512Z,7.38
2022-09-10T11:45:02.946Z,10.32
2022-09-10T11:47:46.153Z,10.85
2022-09-10T11:50:25.276Z,7.53
2022-09-10T11:52:53.581Z,7.40
2022-09-10T11:55:22.711Z,7.05
2022-09-10T11:58:12.573Z,6.95
2022-09-10T12:00:54.580Z,6.57
2022-09-10T12:03:50.354Z,6.75
2022-09-10T12:06:26.962Z,6.65
2022-09-10T12:09:08.503Z,6.40
2022-09-10T12:11:40.338Z,6.72
2022-09-10T12:14:19.626Z,6.50
2022-09-10T12:17:08.740Z,5.70
2022-09-10T12:19:38.989Z,6.22
2022-09-10T12:24:55.681Z,6.43
2022-09-10T12:27:44.209Z,6.72
2022-09-10T12:30:33.631Z,6.35
2022-09-10T12:33:17.302Z,6.50
2022-09-10T12:35:47.910Z,7.78
2022-09-10T12:38:42.918Z,5.93
2022-09-10T12:41:24.584Z,6.15
2022-09-10T12:43:56.139Z,5.70
2022-09-10T12:46:25.659Z,6.10
2022-09-10T12:48:55.539Z,6.28
2022-09-10T12:51:37.392Z,5.78
2022-09-10T12:54:04.050Z,6.10
2022-09-10T12:56:48.773Z,7.43
2022-09-10T12:59:41.737Z,5.78
2022-09-10T13:02:21.909Z,7.82
2022-09-10T13:07:37.679Z,10.95
2022-09-10T13:10:27.124Z,5.88
2022-09-10T13:12:58.594Z,6.78
2022-09-10T13:15:32.019Z,8.93
2022-09-10T13:17:59.851Z,11.55
2022-09-10T13:20:26.454Z,5.57
2022-09-10T13:23:04.509Z,5.03
2022-09-10T13:25:34.912Z,4.68
2022-09-10T13:28:02.631Z,5.53
2022-09-10T13:30:31.193Z,5.78
2022-09-10T13:33:01.041Z,6.90
2022-09-10T13:35:33.641Z,8.65
2022-09-10T13:38:37.597Z,17.42
2022-09-10T13:41:29.673Z,7.28
2022-09-10T13:44:38.552Z,7.47
2022-09-10T13:47:16.967Z,6.93
2022-09-10T13:49:56.610Z,10.30
2022-09-10T13:52:29.360Z,12.05
2022-09-10T13:54:57.636Z,14.00
2022-09-10T13:57:33.857Z,9.32
2022-09-10T14:00:07.726Z,5.00
2022-09-10T14:02:56.280Z,5.30
2022-09-10T14:05:42.239Z,9.43
2022-09-10T14:08:44.977Z,6.53
2022-09-10T14:11:24.121Z,8.20
2022-09-10T14:13:56.237Z,6.30
2022-09-10T14:16:30.855Z,4.40
2022-09-10T14:19:04.270Z,5.75
2022-09-10T14:21:31.359Z,4.55
2022-09-10T14:23:59.391Z,4.60
2022-09-10T14:26:31.341Z,5.00
2022-09-10T14:28:59.785Z,3.55
2022-09-10T14:31:26.621Z,3.95
2022-09-10T14:34:15.437Z,3.90
2022-09-10T14:36:43.514Z,3.55
2022-09-10T14:39:37.981Z,3.65
2022-09-10T14:42:12.191Z,4.00
2022-09-10T14:44:49.858Z,6.38
2022-09-10T14:47:28.997Z,7.35
2022-09-10T14:50:27.844Z,5.10
2022-09-10T14:52:56.258Z,6.65
2022-09-10T14:55:25.580Z,4.15
2022-09-10T14:57:55.528Z,2.87
2022-09-10T15:00:28.753Z,3.05
2022-09-10T15:02:58.609Z,4.13
2022-09-10T15:05:27.879Z,3.80
2022-09-10T15:07:56.115Z,4.23
2022-09-10T15:10:22.943Z,3.33
2022-09-10T15:12:52.218Z,3.15
2022-09-10T15:15:21.613Z,4.23
2022-09-10T15:17:48.631Z,3.60
2022-09-10T15:20:17.860Z,4.10
2022-09-10T15:22:47.621Z,5.17
2022-09-10T15:25:29.117Z,3.83
2022-09-10T15:27:55.794Z,2.88
2022-09-10T15:30:23.802Z,3.22
2022-09-10T15:32:51.968Z,2.60
2022-09-10T15:35:31.636Z,3.25
2022-09-10T15:38:01.651Z,3.33
2022-09-10T15:40:29.703Z,3.25
2022-09-10T15:42:56.388Z,2.78
2022-09-10T15:45:23.889Z,3.13
2022-09-10T15:47:50.988Z,2.50
2022-09-10T15:50:18.173Z,3.15
2022-09-10T15:52:45.152Z,3.05
2022-09-10T15:55:15.803Z,2.80
2022-09-10T15:57:42.811Z,2.90
2022-09-10T16:00:10.224Z,2.50
2022-09-10T16:02:38.434Z,3.05
2022-09-10T16:05:06.033Z,2.97
2022-09-10T16:07:32.944Z,3.45
2022-09-10T16:09:59.582Z,3.50
2022-09-10T16:12:27.392Z,3.58
2022-09-10T16:14:54.634Z,3.30
2022-09-10T16:17:21.344Z,3.10
2022-09-10T16:19:48.102Z,3.70
2022-09-10T16:22:17.558Z,3.42
2022-09-10T16:24:48.559Z,3.78
2022-09-10T16:27:17.468Z,3.58
2022-09-10T16:29:44.552Z,3.55
2022-09-10T16:32:11.357Z,4.07
2022-09-10T16:34:38.656Z,3.60
2022-09-10T16:37:05.727Z,3.97
2022-09-10T16:39:32.464Z,3.92
2022-09-10T16:41:59.347Z,3.78
2022-09-10T16:44:26.191Z,5.97
2022-09-10T16:46:52.843Z,7.38
2022-09-10T16:49:19.637Z,20.40
2022-09-10T16:51:48.947Z,17.10
2022-09-10T16:54:19.343Z,14.93
2022-09-10T16:56:47.632Z,11.25
2022-09-10T16:59:17.757Z,9.15
2022-09-10T17:01:47.876Z,9.43
2022-09-10T17:04:19.804Z,9.65
2022-09-10T17:06:48.220Z,10.02
2022-09-10T17:09:15.166Z,10.27
2022-09-10T17:11:42.081Z,9.98
2022-09-10T17:14:08.825Z,9.73
2022-09-10T17:16:37.776Z,9.95
2022-09-10T17:19:09.100Z,11.40
2022-09-10T17:21:37.679Z,11.60
2022-09-10T17:24:06.559Z,12.30
2022-09-10T17:26:34.818Z,11.82
2022-09-10T17:29:06.993Z,11.80
2022-09-10T17:31:34.466Z,11.10
2022-09-10T17:34:01.888Z,11.95
2022-09-10T17:36:30.731Z,12.05
2022-09-10T17:39:00.686Z,12.25
2022-09-10T17:41:28.594Z,11.38
2022-09-10T17:43:55.860Z,12.48
2022-09-10T17:46:24.107Z,12.38
2022-09-10T17:48:52.045Z,11.90
2022-09-10T17:51:24.678Z,11.52
2022-09-10T17:53:53.649Z,12.45
2022-09-10T17:56:20.877Z,12.90
2022-09-10T17:58:48.689Z,15.40
2022-09-10T18:01:26.805Z,18.35
2022-09-10T18:03:54.164Z,24.08
2022-09-10T18:06:21.712Z,21.17
2022-09-10T18:08:48.844Z,18.08
2022-09-10T18:11:22.139Z,19.73
2022-09-10T18:13:52.024Z,16.25
2022-09-10T18:16:21.890Z,14.88
2022-09-10T18:18:54.038Z,21.65
2022-09-10T18:21:25.437Z,25.00
2022-09-10T18:23:54.022Z,24.02
2022-09-10T18:26:23.574Z,21.90
2022-09-10T18:29:18.969Z,18.70
2022-09-10T18:31:50.882Z,17.33
2022-09-10T18:34:23.300Z,16.85
2022-09-10T18:36:54.818Z,15.32
2022-09-10T18:39:22.627Z,14.77
2022-09-10T18:41:49.308Z,14.10
2022-09-10T18:44:21.760Z,14.93
2022-09-10T18:46:50.548Z,14.55
2022-09-10T18:49:21.362Z,15.40
2022-09-10T18:51:48.646Z,15.40
2022-09-10T18:54:17.114Z,14.95
2022-09-10T18:56:45.033Z,17.25
2022-09-10T18:59:15.050Z,18.45
2022-09-10T19:01:43.821Z,18.23
2022-09-10T19:04:13.793Z,19.83
2022-09-10T19:06:43.663Z,18.45
2022-09-10T19:09:12.862Z,17.13
2022-09-10T19:11:42.192Z,17.33
2022-09-10T19:14:16.333Z,18.60
2022-09-10T19:16:43.104Z,18.10
2022-09-10T19:19:14.164Z,17.73
2022-09-10T19:21:40.964Z,17.83
2022-09-10T19:24:07.672Z,17.55
2022-09-10T19:26:34.878Z,15.95
2022-09-10T19:29:02.312Z,17.50
2022-09-10T19:31:31.326Z,16.48
2022-09-10T19:34:00.426Z,17.30
2022-09-10T19:36:28.451Z,18.00
2022-09-10T19:38:55.257Z,18.75
2022-09-10T19:41:22.592Z,19.45
2022-09-10T19:43:51.450Z,18.92
2022-09-10T19:46:20.271Z,19.17
2022-09-10T19:48:47.761Z,17.55
2022-09-10T19:51:18.720Z,16.33
2022-09-10T19:53:45.576Z,16.40
2022-09-10T19:56:21.400Z,15.90
2022-09-10T19:58:52.764Z,14.40
2022-09-10T20:01:31.434Z,15.80
2022-09-10T20:04:01.069Z,15.80
2022-09-10T20:06:29.921Z,19.02
2022-09-10T20:08:57.615Z,19.05
2022-09-10T20:11:30.652Z,19.20
2022-09-10T20:14:00.576Z,19.60
2022-09-10T20:16:28.616Z,21.15
2022-09-10T20:18:55.852Z,19.75
2022-09-10T20:21:26.167Z,19.70
2022-09-10T20:26:25.410Z,16.57
2022-09-10T20:28:59.782Z,16.52
2022-09-10T20:31:28.791Z,16.80
2022-09-10T20:33:58.358Z,17.77
2022-09-10T20:36:26.630Z,17.83
2022-09-10T20:38:54.353Z,18.38
2022-09-10T20:41:23.606Z,16.50
2022-09-10T20:43:51.749Z,17.73
2022-09-10T20:46:20.010Z,18.45
2022-09-10T20:48:49.289Z,16.02
2022-09-10T20:51:18.556Z,17.15
2022-09-10T20:53:47.518Z,18.25
2022-09-10T20:56:17.639Z,18.13
2022-09-10T20:58:45.772Z,16.38
2022-09-10T21:01:18.999Z,14.70
2022-09-10T21:03:47.490Z,14.18
2022-09-10T21:06:16.373Z,14.45
2022-09-10T21:08:43.247Z,12.20
2022-09-10T21:11:12.866Z,12.80
2022-09-10T21:13:45.094Z,13.40
2022-09-10T21:16:17.365Z,13.43
2022-09-10T21:18:53.604Z,13.70
2022-09-10T21:21:25.911Z,14.57
2022-09-10T21:24:00.111Z,14.25
2022-09-10T21:26:29.644Z,15.10
2022-09-10T21:29:02.354Z,14.68
2022-09-10T21:31:30.513Z,14.95
2022-09-10T21:34:02.763Z,14.18
2022-09-10T21:36:31.217Z,13.75
2022-09-10T21:39:00.351Z,14.18
2022-09-10T21:41:34.600Z,16.30
2022-09-10T21:44:05.087Z,14.63
2022-09-10T21:46:32.454Z,14.80
2022-09-10T21:49:02.226Z,13.50
2022-09-10T21:51:30.441Z,14.55
2022-09-10T21:53:59.397Z,12.32
2022-09-10T21:56:29.647Z,15.07
2022-09-10T22:01:27.092Z,14.13
2022-09-10T22:04:00.597Z,14.05
2022-09-10T22:06:33.704Z,13.77
2022-09-10T22:09:05.270Z,13.52
2022-09-10T22:11:53.171Z,13.93
2022-09-10T22:14:22.638Z,15.70
2022-09-10T22:16:50.000Z,14.88
2022-09-10T22:19:19.622Z,17.33
2022-09-10T22:21:47.144Z,16.70
2022-09-10T22:24:15.180Z,19.17
2022-09-10T22:26:43.942Z,17.67
2022-09-10T22:29:12.629Z,18.55
2022-09-10T22:31:39.834Z,17.77
2022-09-10T22:34:13.520Z,19.33
2022-09-10T22:36:42.141Z,19.17
2022-09-10T22:39:27.083Z,19.10
2022-09-10T22:41:55.551Z,18.15
2022-09-10T22:44:23.123Z,17.88
2022-09-10T22:46:50.189Z,16.33
2022-09-10T22:49:17.160Z,16.00
2022-09-10T22:51:44.572Z,16.55
2022-09-10T22:54:13.709Z,16.95
2022-09-10T22:56:42.168Z,15.95
2022-09-10T22:59:15.018Z,16.27
2022-09-10T23:01:43.558Z,16.52
2022-09-10T23:04:12.324Z,17.75
2022-09-10T23:06:39.566Z,16.70
2022-09-10T23:09:13.610Z,15.95
2022-09-10T23:11:41.455Z,15.55
2022-09-10T23:14:13.223Z,14.20
2022-09-10T23:16:42.296Z,12.40
2022-09-10T23:19:20.000Z,11.15
2022-09-10T23:21:49.613Z,10.07
2022-09-10T23:24:18.273Z,7.93
2022-09-10T23:26:45.616Z,7.00
2022-09-10T23:29:13.006Z,7.22
2022-09-10T23:31:40.949Z,7.53
2022-09-10T23:34:11.648Z,7.80
2022-09-10T23:36:41.337Z,7.90
2022-09-10T23:39:22.893Z,6.45
2022-09-10T23:42:02.608Z,5.93
2022-09-10T23:44:29.347Z,4.20
2022-09-10T23:46:56.168Z,4.60
2022-09-10T23:49:24.190Z,5.00
2022-09-10T23:51:51.648Z,4.97
2022-09-10T23:54:18.688Z,4.78
2022-09-10T23:56:45.757Z,4.90
2022-09-10T23:59:12.777Z,4.47
